Smithville, Missouri
Current Conditions -  °F | °C
As of 9:53 AM on Thursday 29 Jan 2015 (Local Time) from KMCI Reporting Station
Overcast Overcast  
Wind Chill: 27°   Ceiling: 2700
Heat Index: 38°   Visibility: 10mi
Dew Point: 27°   Wind: 23mph
Humidity: 65%   Direction: 340°NNW
Pressure: 30.3"   Gusts: 35mph
Location:  39.39°N, 94.58°W
Report Text: KMCI 291553Z 34020G30KT 10SM OVC027 03/M03 A3030 RMK AO2 PK WND 35030/1539 SLP262 T00331028
Loading
Personal Weather Stations






























Interactive Weather Map New forecast layout! Learn more

10-Day Weather Forecast

Advertisements
Track Severe Weather on mobile